createdAt,value
2018-07-26T00:00:09.985Z,99.90
2018-07-26T00:02:38.455Z,99.90
2018-07-26T00:05:06.981Z,99.90
2018-07-26T00:07:35.723Z,99.90
2018-07-26T00:10:05.135Z,99.90
2018-07-26T00:12:33.530Z,99.90
2018-07-26T00:15:02.102Z,99.90
2018-07-26T00:17:30.492Z,99.90
2018-07-26T00:19:58.893Z,99.90
2018-07-26T00:22:27.415Z,99.90
2018-07-26T00:24:55.857Z,99.90
2018-07-26T00:27:24.232Z,99.90
2018-07-26T00:29:52.657Z,99.90
2018-07-26T00:32:21.080Z,99.90
2018-07-26T00:34:49.468Z,99.90
2018-07-26T00:37:18.080Z,99.90
2018-07-26T00:39:46.631Z,99.90
2018-07-26T00:42:15.287Z,99.90
2018-07-26T00:44:43.721Z,99.90
2018-07-26T00:47:12.250Z,99.90
2018-07-26T00:49:40.850Z,99.90
2018-07-26T00:52:09.294Z,99.90
2018-07-26T00:54:37.693Z,99.90
2018-07-26T00:57:06.297Z,99.90
2018-07-26T00:59:34.688Z,99.90
2018-07-26T01:02:03.099Z,99.90
2018-07-26T01:04:31.764Z,99.90
2018-07-26T01:07:00.168Z,99.90
2018-07-26T01:09:28.677Z,99.90
2018-07-26T01:11:57.309Z,99.90
2018-07-26T01:14:25.705Z,99.90
2018-07-26T01:16:54.208Z,99.90
2018-07-26T01:19:22.608Z,99.90
2018-07-26T01:21:50.996Z,99.90
2018-07-26T01:24:19.432Z,99.90
2018-07-26T01:26:47.836Z,99.90
2018-07-26T01:29:18.806Z,99.90
2018-07-26T01:31:47.700Z,99.90
2018-07-26T01:34:16.085Z,99.90
2018-07-26T01:36:44.524Z,99.90
2018-07-26T01:39:12.916Z,99.90
2018-07-26T01:41:41.369Z,99.90
2018-07-26T01:44:17.900Z,99.90
2018-07-26T01:46:46.602Z,99.90
2018-07-26T01:49:14.992Z,99.90
2018-07-26T01:51:43.517Z,99.90
2018-07-26T01:54:11.944Z,99.90
2018-07-26T01:56:40.347Z,99.90
2018-07-26T01:59:08.843Z,99.90
2018-07-26T02:01:37.474Z,99.90
2018-07-26T02:04:05.896Z,99.90
2018-07-26T02:06:34.471Z,99.90
2018-07-26T02:09:03.313Z,99.90
2018-07-26T02:11:31.733Z,99.90
2018-07-26T02:14:00.104Z,99.90
2018-07-26T02:16:28.537Z,99.90
2018-07-26T02:18:56.961Z,99.90
2018-07-26T02:21:25.385Z,99.90
2018-07-26T02:23:53.765Z,99.90
2018-07-26T02:26:22.374Z,99.90
2018-07-26T02:28:50.782Z,99.90
2018-07-26T02:31:19.429Z,99.90
2018-07-26T02:33:48.128Z,99.90
2018-07-26T02:38:44.993Z,99.90
2018-07-26T02:41:13.429Z,99.90
2018-07-26T02:43:41.837Z,99.90
2018-07-26T02:46:10.525Z,99.90
2018-07-26T02:48:38.912Z,99.90
2018-07-26T02:51:07.330Z,99.90
2018-07-26T02:53:36.006Z,99.90
2018-07-26T02:56:04.417Z,99.90
2018-07-26T02:58:32.871Z,99.90
2018-07-26T03:01:01.706Z,99.90
2018-07-26T03:03:30.130Z,99.90
2018-07-26T03:05:58.525Z,99.90
2018-07-26T03:08:26.977Z,99.90
2018-07-26T03:10:55.381Z,99.90
2018-07-26T03:13:23.808Z,99.90
2018-07-26T03:15:52.213Z,99.90
2018-07-26T03:18:20.739Z,99.90
2018-07-26T03:20:49.582Z,99.90
2018-07-26T03:23:17.954Z,99.90
2018-07-26T03:28:14.506Z,99.90
2018-07-26T03:30:43.125Z,99.90
2018-07-26T03:33:11.739Z,99.90
2018-07-26T03:35:40.150Z,99.90
2018-07-26T03:38:08.574Z,99.90
2018-07-26T03:40:36.984Z,99.90
2018-07-26T03:43:05.377Z,99.90
2018-07-26T03:45:33.908Z,99.90
2018-07-26T03:48:02.635Z,99.90
2018-07-26T03:50:31.032Z,99.90
2018-07-26T03:52:59.450Z,99.90
2018-07-26T03:55:27.856Z,99.90
2018-07-26T03:57:56.757Z,99.90
2018-07-26T04:00:25.088Z,99.90
2018-07-26T04:02:53.534Z,99.90
2018-07-26T04:05:21.925Z,99.90
2018-07-26T04:07:50.358Z,99.90
2018-07-26T04:10:19.153Z,99.90
2018-07-26T04:12:47.536Z,99.90
2018-07-26T04:15:15.980Z,99.90
2018-07-26T04:17:44.801Z,99.90
2018-07-26T04:20:13.196Z,99.90
2018-07-26T04:22:41.780Z,99.90
2018-07-26T04:25:10.204Z,99.90
2018-07-26T04:27:38.720Z,99.90
2018-07-26T04:30:07.145Z,99.90
2018-07-26T04:32:35.560Z,99.90
2018-07-26T04:35:04.036Z,99.90
2018-07-26T04:37:32.449Z,99.90
2018-07-26T04:40:00.916Z,99.90
2018-07-26T04:42:29.477Z,99.90
2018-07-26T04:44:57.975Z,99.90
2018-07-26T04:47:26.384Z,99.90
2018-07-26T04:49:54.792Z,99.90
2018-07-26T04:52:23.273Z,99.90
2018-07-26T04:54:51.696Z,99.90
2018-07-26T04:57:20.084Z,99.90
2018-07-26T05:04:44.728Z,99.90
2018-07-26T05:07:13.116Z,99.90
2018-07-26T05:09:41.703Z,99.90
2018-07-26T05:12:10.180Z,99.90
2018-07-26T05:14:38.588Z,99.90
2018-07-26T05:17:07.336Z,99.90
2018-07-26T05:19:35.722Z,99.90
2018-07-26T05:22:04.209Z,99.90
2018-07-26T05:24:32.757Z,99.90
2018-07-26T05:27:01.185Z,99.90
2018-07-26T05:29:29.677Z,99.90
2018-07-26T05:31:58.148Z,99.90
2018-07-26T05:34:26.534Z,99.90
2018-07-26T05:36:54.920Z,99.90
2018-07-26T05:39:23.358Z,99.90
2018-07-26T05:41:51.768Z,99.90
2018-07-26T05:44:20.669Z,99.90
2018-07-26T05:46:49.056Z,99.90
2018-07-26T05:49:17.464Z,99.90
2018-07-26T05:51:45.860Z,99.90
2018-07-26T05:54:14.273Z,99.90
2018-07-26T05:56:42.766Z,99.90
2018-07-26T06:01:49.466Z,99.90
2018-07-26T06:04:17.881Z,99.90
2018-07-26T06:06:46.305Z,99.90
2018-07-26T06:09:14.712Z,99.90
2018-07-26T06:11:43.116Z,99.90
2018-07-26T06:14:11.599Z,99.90
2018-07-26T06:16:40.244Z,99.90
2018-07-26T06:19:08.649Z,99.90
2018-07-26T06:21:37.053Z,99.90
2018-07-26T06:24:05.817Z,99.90
2018-07-26T06:26:34.246Z,99.90
2018-07-26T06:29:02.683Z,99.90
2018-07-26T06:31:31.081Z,99.90
2018-07-26T06:33:59.491Z,99.90
2018-07-26T06:36:27.931Z,99.90
2018-07-26T06:38:56.391Z,99.90
2018-07-26T06:41:24.781Z,99.90
2018-07-26T06:43:53.222Z,99.90
2018-07-26T06:46:21.809Z,99.90
2018-07-26T06:48:50.260Z,99.90
2018-07-26T06:51:19.041Z,99.90
2018-07-26T06:53:47.608Z,99.90
2018-07-26T06:56:16.009Z,99.90
2018-07-26T06:58:44.409Z,99.90
2018-07-26T07:01:12.824Z,99.90
2018-07-26T07:03:41.244Z,99.90
2018-07-26T07:06:09.641Z,99.90
2018-07-26T07:08:38.264Z,99.90
2018-07-26T07:11:06.672Z,99.90
2018-07-26T07:13:35.127Z,99.90
2018-07-26T07:16:03.605Z,99.90
2018-07-26T07:18:31.991Z,99.90
2018-07-26T07:21:00.381Z,99.90
2018-07-26T07:23:28.808Z,99.90
2018-07-26T07:25:57.219Z,99.90
2018-07-26T07:28:25.652Z,99.90
2018-07-26T07:30:54.307Z,99.90
2018-07-26T07:33:22.720Z,99.90
2018-07-26T07:35:51.140Z,99.90
2018-07-26T07:38:19.558Z,99.90
2018-07-26T07:40:47.955Z,99.90
2018-07-26T07:43:16.388Z,99.90
2018-07-26T07:45:44.873Z,99.90
2018-07-26T07:48:13.260Z,99.90
2018-07-26T07:50:41.653Z,99.90
2018-07-26T07:53:10.141Z,99.90
2018-07-26T07:55:38.581Z,99.90
2018-07-26T07:58:06.998Z,99.90
2018-07-26T08:00:35.450Z,99.90
2018-07-26T08:03:03.918Z,99.90
2018-07-26T08:05:32.328Z,99.90
2018-07-26T08:08:00.752Z,99.90
2018-07-26T08:10:29.177Z,99.90
2018-07-26T08:12:57.587Z,99.90
2018-07-26T08:15:26.021Z,99.90
2018-07-26T08:17:54.433Z,99.90
2018-07-26T08:20:23.022Z,99.90
2018-07-26T08:22:51.532Z,99.90
2018-07-26T08:25:19.976Z,99.90
2018-07-26T08:27:48.595Z,99.90
2018-07-26T08:32:45.144Z,99.90
2018-07-26T08:37:41.711Z,99.90
2018-07-26T08:40:10.154Z,99.90
2018-07-26T08:42:38.612Z,99.90
2018-07-26T08:45:07.203Z,99.90
2018-07-26T08:47:35.607Z,99.90
2018-07-26T08:50:04.781Z,99.90
2018-07-26T08:52:33.464Z,99.90
2018-07-26T08:55:02.119Z,99.90
2018-07-26T08:57:30.675Z,99.90
2018-07-26T08:59:59.084Z,99.90
2018-07-26T09:02:27.576Z,99.90
2018-07-26T09:04:56.059Z,99.90
2018-07-26T09:07:24.501Z,99.90
2018-07-26T09:09:52.920Z,99.90
2018-07-26T09:12:21.345Z,99.90
2018-07-26T09:14:49.723Z,99.60
2018-07-26T09:17:18.151Z,98.90
2018-07-26T09:19:46.584Z,97.60
2018-07-26T09:22:15.082Z,98.20
2018-07-26T09:24:43.476Z,96.40
2018-07-26T09:27:13.097Z,96.20
2018-07-26T09:29:41.588Z,96.10
2018-07-26T09:32:10.256Z,95.50
2018-07-26T09:34:38.667Z,94.40
2018-07-26T09:37:07.133Z,93.20
2018-07-26T09:39:35.735Z,90.30
2018-07-26T09:42:04.257Z,84.70
2018-07-26T09:44:32.674Z,82.10
2018-07-26T09:47:01.108Z,83.10
2018-07-26T09:49:29.709Z,80.20
2018-07-26T09:51:58.117Z,79.00
2018-07-26T09:54:26.695Z,75.80
2018-07-26T09:56:55.147Z,78.40
2018-07-26T09:59:23.512Z,76.20
2018-07-26T10:01:52.133Z,76.00
2018-07-26T10:04:20.620Z,73.90
2018-07-26T10:06:49.066Z,74.30
2018-07-26T10:09:17.691Z,73.60
2018-07-26T10:11:46.127Z,74.20
2018-07-26T10:14:14.476Z,75.20
2018-07-26T10:16:43.199Z,78.30
2018-07-26T10:19:11.583Z,76.50
2018-07-26T10:21:40.011Z,75.30
2018-07-26T10:24:08.673Z,75.20
2018-07-26T10:26:37.056Z,74.70
2018-07-26T10:29:05.520Z,76.70
2018-07-26T10:31:34.216Z,76.20
2018-07-26T10:34:02.637Z,74.70
2018-07-26T10:36:31.024Z,72.50
2018-07-26T10:38:59.674Z,68.90
2018-07-26T10:41:28.192Z,67.60
2018-07-26T10:43:56.590Z,66.80
2018-07-26T10:46:25.312Z,68.40
2018-07-26T10:51:21.904Z,61.40
2018-07-26T10:53:50.292Z,61.60
2018-07-26T10:56:18.712Z,60.80
2018-07-26T10:58:47.393Z,62.60
2018-07-26T11:01:15.839Z,61.10
2018-07-26T11:03:44.267Z,60.60
2018-07-26T11:06:12.623Z,59.90
2018-07-26T11:08:41.053Z,59.20
2018-07-26T11:11:09.477Z,57.40
2018-07-26T11:13:37.853Z,57.60
2018-07-26T11:16:06.299Z,59.50
2018-07-26T11:18:34.680Z,59.50
2018-07-26T11:21:03.072Z,58.30
2018-07-26T11:23:31.530Z,59.90
2018-07-26T11:25:59.977Z,59.50
2018-07-26T11:28:28.452Z,58.00
2018-07-26T11:30:56.892Z,58.60
2018-07-26T11:33:25.276Z,56.10
2018-07-26T11:35:53.749Z,56.40
2018-07-26T11:38:22.100Z,55.50
2018-07-26T11:40:50.520Z,55.40
2018-07-26T11:43:18.961Z,55.20
2018-07-26T11:45:47.419Z,54.50
2018-07-26T11:48:15.823Z,55.10
2018-07-26T11:50:44.201Z,55.50
2018-07-26T11:53:12.606Z,55.80
2018-07-26T11:55:41.025Z,54.20
2018-07-26T11:58:09.468Z,54.60
2018-07-26T12:00:37.816Z,54.50
2018-07-26T12:03:06.447Z,54.20
2018-07-26T12:05:34.820Z,53.20
2018-07-26T12:08:03.286Z,54.00
2018-07-26T12:10:31.713Z,53.20
2018-07-26T12:13:00.078Z,53.80
2018-07-26T12:15:28.475Z,53.60
2018-07-26T12:17:56.982Z,52.50
2018-07-26T12:20:25.366Z,52.70
2018-07-26T12:22:54.107Z,52.40
2018-07-26T12:25:22.513Z,52.30
2018-07-26T12:27:50.897Z,52.40
2018-07-26T12:30:19.524Z,52.60
2018-07-26T12:32:47.925Z,53.50
2018-07-26T12:35:16.337Z,53.30
2018-07-26T12:37:44.740Z,52.20
2018-07-26T12:40:13.137Z,51.90
2018-07-26T12:42:41.522Z,51.70
2018-07-26T12:45:09.947Z,51.70
2018-07-26T12:47:38.496Z,52.10
2018-07-26T12:50:06.772Z,51.30
2018-07-26T12:52:35.192Z,50.40
2018-07-26T12:55:03.660Z,50.60
2018-07-26T12:57:32.141Z,51.40
2018-07-26T13:00:00.548Z,51.50
2018-07-26T13:02:29.133Z,51.60
2018-07-26T13:04:58.072Z,51.00
2018-07-26T13:07:26.480Z,51.30
2018-07-26T13:09:55.109Z,53.10
2018-07-26T13:12:23.562Z,52.50
2018-07-26T13:14:51.984Z,52.60
2018-07-26T13:17:20.398Z,55.60
2018-07-26T13:19:48.789Z,54.20
2018-07-26T13:22:17.204Z,52.50
2018-07-26T13:24:45.612Z,52.00
2018-07-26T13:27:14.004Z,51.20
2018-07-26T13:29:42.433Z,50.90
2018-07-26T13:32:10.849Z,51.30
2018-07-26T13:34:39.316Z,50.60
2018-07-26T13:37:07.740Z,49.70
2018-07-26T13:39:36.132Z,50.80
2018-07-26T13:42:04.706Z,49.80
2018-07-26T13:44:33.199Z,50.60
2018-07-26T13:47:01.610Z,51.00
2018-07-26T13:49:30.045Z,51.30
2018-07-26T13:51:58.456Z,52.10
2018-07-26T13:54:27.036Z,52.10
2018-07-26T13:56:55.436Z,50.70
2018-07-26T13:59:23.826Z,50.60
2018-07-26T14:01:52.264Z,51.50
2018-07-26T14:04:20.650Z,50.60
2018-07-26T14:06:49.048Z,50.30
2018-07-26T14:09:17.536Z,51.20
2018-07-26T14:11:45.949Z,49.80
2018-07-26T14:14:14.359Z,51.50
2018-07-26T14:16:42.767Z,49.60
2018-07-26T14:19:11.191Z,50.50
2018-07-26T14:21:39.584Z,51.90
2018-07-26T14:24:13.392Z,52.60
2018-07-26T14:26:41.816Z,52.80
2018-07-26T14:29:10.216Z,53.10
2018-07-26T14:31:38.847Z,53.90
2018-07-26T14:34:07.244Z,53.80
2018-07-26T14:36:35.650Z,53.70
2018-07-26T14:39:06.393Z,53.60
2018-07-26T14:41:34.801Z,53.70
2018-07-26T14:44:03.213Z,53.80
2018-07-26T14:46:31.617Z,53.90
2018-07-26T14:49:00.120Z,55.00
2018-07-26T14:51:28.560Z,55.00
2018-07-26T14:53:56.958Z,54.50
2018-07-26T14:56:25.377Z,55.10
2018-07-26T14:58:53.906Z,55.40
2018-07-26T15:03:50.432Z,55.20
2018-07-26T15:06:19.027Z,55.20
2018-07-26T15:08:48.131Z,54.60
2018-07-26T15:11:17.119Z,55.30
2018-07-26T15:13:45.736Z,55.70
2018-07-26T15:16:14.150Z,55.30
2018-07-26T15:18:42.904Z,56.50
2018-07-26T15:21:11.709Z,56.10
2018-07-26T15:23:40.161Z,55.50
2018-07-26T15:26:08.618Z,54.00
2018-07-26T15:28:36.956Z,53.40
2018-07-26T15:31:05.620Z,52.40
2018-07-26T15:33:34.043Z,53.00
2018-07-26T15:36:02.525Z,52.70
2018-07-26T15:38:30.908Z,53.10
2018-07-26T15:40:59.337Z,52.90
2018-07-26T15:43:28.457Z,52.80
2018-07-26T15:45:57.036Z,52.70
2018-07-26T15:48:25.420Z,53.60
2018-07-26T15:50:54.581Z,53.00
2018-07-26T15:53:22.976Z,52.00
2018-07-26T15:55:51.404Z,52.20
2018-07-26T15:58:19.807Z,53.30
2018-07-26T16:00:48.209Z,52.50
2018-07-26T16:03:16.668Z,52.30
2018-07-26T16:05:45.125Z,53.00
2018-07-26T16:08:13.583Z,52.60
2018-07-26T16:10:42.032Z,53.00
2018-07-26T16:13:10.436Z,53.50
2018-07-26T16:18:07.072Z,53.70
2018-07-26T16:20:35.466Z,53.90
2018-07-26T16:23:03.900Z,54.40
2018-07-26T16:25:32.441Z,54.50
2018-07-26T16:30:29.051Z,54.90
2018-07-26T16:32:57.494Z,54.80
2018-07-26T16:35:25.921Z,56.10
2018-07-26T16:37:55.321Z,56.60
2018-07-26T16:40:23.868Z,56.90
2018-07-26T16:42:52.344Z,57.70
2018-07-26T16:45:20.764Z,58.10
2018-07-26T16:47:49.198Z,58.70
2018-07-26T16:50:17.696Z,58.00
2018-07-26T16:52:46.194Z,59.10
2018-07-26T16:55:14.592Z,60.50
2018-07-26T16:57:43.062Z,61.00
2018-07-26T17:00:11.738Z,60.90
2018-07-26T17:02:40.248Z,63.20
2018-07-26T17:05:09.085Z,64.40
2018-07-26T17:07:38.028Z,63.40
2018-07-26T17:12:35.005Z,63.30
2018-07-26T17:15:03.433Z,64.30
2018-07-26T17:17:31.872Z,64.00
2018-07-26T17:20:00.327Z,64.30
2018-07-26T17:22:28.716Z,64.50
2018-07-26T17:24:57.174Z,65.30
2018-07-26T17:27:25.645Z,66.00
2018-07-26T17:29:55.951Z,66.50
2018-07-26T17:32:24.494Z,67.10
2018-07-26T17:34:52.977Z,67.10
2018-07-26T17:37:21.414Z,67.60
2018-07-26T17:39:49.877Z,67.70
2018-07-26T17:42:18.342Z,67.50
2018-07-26T17:44:46.819Z,67.90
2018-07-26T17:47:15.290Z,68.60
2018-07-26T17:49:43.715Z,68.00
2018-07-26T17:52:12.228Z,68.70
2018-07-26T17:54:40.729Z,68.60
2018-07-26T17:57:09.126Z,68.20
2018-07-26T17:59:37.540Z,68.30
2018-07-26T18:04:34.174Z,69.70
2018-07-26T18:07:02.622Z,69.40
2018-07-26T18:09:31.084Z,69.10
2018-07-26T18:11:59.510Z,69.00
2018-07-26T18:14:27.940Z,69.60
2018-07-26T18:16:56.770Z,71.10
2018-07-26T18:19:25.193Z,71.80
2018-07-26T18:21:53.608Z,72.10
2018-07-26T18:24:22.300Z,72.90
2018-07-26T18:26:50.824Z,73.40
2018-07-26T18:29:19.397Z,74.20
2018-07-26T18:34:16.155Z,75.30
2018-07-26T18:36:44.763Z,75.70
2018-07-26T18:39:13.886Z,75.90
2018-07-26T18:41:42.498Z,76.40
2018-07-26T18:44:11.076Z,77.20
2018-07-26T18:46:39.580Z,77.30
2018-07-26T18:49:09.215Z,78.20
2018-07-26T18:54:06.120Z,79.60
2018-07-26T18:56:34.688Z,79.30
2018-07-26T18:59:03.265Z,80.20
2018-07-26T19:01:31.764Z,80.20
2018-07-26T19:04:00.255Z,82.60
2018-07-26T19:06:28.718Z,84.30
2018-07-26T19:08:57.413Z,86.50
2018-07-26T19:11:25.831Z,88.20
2018-07-26T19:13:54.350Z,89.10
2018-07-26T19:16:22.871Z,90.00
2018-07-26T19:18:51.276Z,91.20
2018-07-26T19:21:19.751Z,92.40
2018-07-26T19:23:48.469Z,93.10
2018-07-26T19:26:17.059Z,95.00
2018-07-26T19:28:45.478Z,96.10
2018-07-26T19:31:14.241Z,97.30
2018-07-26T19:33:42.725Z,98.20
2018-07-26T19:36:11.194Z,99.30
2018-07-26T19:38:39.601Z,99.70
2018-07-26T19:41:08.105Z,99.10
2018-07-26T19:48:32.841Z,99.90
2018-07-26T19:51:01.501Z,99.90
2018-07-26T19:53:29.962Z,99.90
2018-07-26T19:55:58.385Z,99.90
2018-07-26T19:58:26.828Z,99.90
2018-07-26T20:00:55.318Z,99.90
2018-07-26T20:03:23.907Z,99.90
2018-07-26T20:05:52.364Z,99.90
2018-07-26T20:08:20.905Z,99.90
2018-07-26T20:10:49.384Z,99.90
2018-07-26T20:13:17.873Z,99.90
2018-07-26T20:15:46.368Z,99.90
2018-07-26T20:18:14.853Z,99.90
2018-07-26T20:20:43.254Z,99.90
2018-07-26T20:23:11.802Z,99.90
2018-07-26T20:25:45.052Z,99.90
2018-07-26T20:28:13.677Z,99.90
2018-07-26T20:30:42.204Z,99.90
2018-07-26T20:33:11.380Z,99.90
2018-07-26T20:35:39.808Z,99.90
2018-07-26T20:38:09.282Z,99.90
2018-07-26T20:40:37.712Z,99.90
2018-07-26T20:43:06.536Z,99.90
2018-07-26T20:45:35.340Z,99.90
2018-07-26T20:48:03.795Z,99.90
2018-07-26T20:50:32.316Z,99.90
2018-07-26T20:53:00.752Z,99.90
2018-07-26T20:55:29.265Z,99.90
2018-07-26T20:57:57.719Z,99.90
2018-07-26T21:00:26.147Z,99.90
2018-07-26T21:02:54.656Z,99.90
2018-07-26T21:05:23.162Z,99.90
2018-07-26T21:07:51.532Z,99.90
2018-07-26T21:10:20.061Z,99.90
2018-07-26T21:12:48.516Z,99.90
2018-07-26T21:15:16.933Z,99.90
2018-07-26T21:17:45.455Z,99.90
2018-07-26T21:20:13.939Z,99.90
2018-07-26T21:22:42.363Z,99.90
2018-07-26T21:25:10.785Z,99.90
2018-07-26T21:27:39.496Z,99.90
2018-07-26T21:30:08.164Z,99.90
2018-07-26T21:32:36.860Z,99.90
2018-07-26T21:35:06.418Z,99.90
2018-07-26T21:37:34.802Z,99.90
2018-07-26T21:40:03.273Z,99.90
2018-07-26T21:42:31.795Z,99.90
2018-07-26T21:45:00.213Z,99.90
2018-07-26T21:47:28.706Z,99.90
2018-07-26T21:49:57.108Z,99.90
2018-07-26T21:52:25.540Z,99.90
2018-07-26T21:54:54.172Z,99.90
2018-07-26T21:57:22.764Z,99.90
2018-07-26T21:59:51.165Z,99.90
2018-07-26T22:02:19.649Z,99.90
2018-07-26T22:04:48.071Z,99.90
2018-07-26T22:07:16.473Z,99.90
2018-07-26T22:09:44.872Z,99.90
2018-07-26T22:12:13.293Z,99.90
2018-07-26T22:17:09.849Z,99.90
2018-07-26T22:19:38.308Z,99.90
2018-07-26T22:22:07.010Z,99.90
2018-07-26T22:24:35.365Z,99.90
2018-07-26T22:27:03.764Z,99.90
2018-07-26T22:29:32.165Z,99.90
2018-07-26T22:32:00.677Z,99.90
2018-07-26T22:34:29.297Z,99.90
2018-07-26T22:36:57.702Z,99.90
2018-07-26T22:39:26.481Z,99.90
2018-07-26T22:41:54.856Z,99.90
2018-07-26T22:44:23.324Z,99.90
2018-07-26T22:49:20.088Z,99.90
2018-07-26T22:51:48.512Z,99.90
2018-07-26T22:54:16.915Z,99.90
2018-07-26T22:56:45.323Z,99.90
2018-07-26T22:59:13.725Z,99.90
2018-07-26T23:01:42.339Z,99.90
2018-07-26T23:04:10.749Z,99.90
2018-07-26T23:06:39.136Z,99.90
2018-07-26T23:09:09.216Z,99.90
2018-07-26T23:11:37.632Z,99.90
2018-07-26T23:14:06.302Z,99.90
2018-07-26T23:16:34.712Z,99.90
2018-07-26T23:19:03.116Z,99.90
2018-07-26T23:21:31.617Z,99.90
2018-07-26T23:24:00.064Z,99.90
2018-07-26T23:26:28.461Z,99.90
2018-07-26T23:28:56.899Z,99.90
2018-07-26T23:31:25.323Z,99.90
2018-07-26T23:33:53.753Z,99.90
2018-07-26T23:36:22.182Z,99.90
2018-07-26T23:38:50.584Z,99.90
2018-07-26T23:41:19.021Z,99.90
2018-07-26T23:43:47.428Z,99.90
2018-07-26T23:46:16.001Z,99.90
2018-07-26T23:48:44.440Z,99.90
2018-07-26T23:51:12.849Z,99.90
2018-07-26T23:53:41.244Z,99.90
2018-07-26T23:56:09.620Z,99.90
2018-07-26T23:58:38.048Z,99.90
